Flight Track Log - Related Links

Times and Time Zones

All times are in EST time to prevent confusion due to time zone crossing. See the N4508X flight status page for this flight to view local times or setup timezone preferences in your user account.

Time Position Orientation Groundspeed Altitude Reporting Facility
EST Latitude Longitude Course Direction KTS MPH feet Rate Location/Type
Sat 12:00:37 PM 41.5000 -74.0667 143° Southeast 111 128 3,000  Level New York TRACON
Sat 12:01:37 PM 41.4833 -74.0167 114° Southeast 116 133 3,100 476 Climbing New York TRACON
Sat 12:02:43 PM 41.4667 -73.9833 124° Southeast 99 114 4,000 429 Climbing New York TRACON
Sat 12:03:43 PM 41.4667 -73.9333 90° East 130 150 4,000 50 Level New York TRACON
Sat 12:04:00 PM 41.2770 -73.9704 148° Southeast  Level Estimated
Sat 12:04:43 PM 41.4500 -73.9000 124° Southeast 116 133 4,100  Level New York TRACON
Sat 12:05:00 PM 41.2970 -73.9043 68° East  Level FlightAware Approximate
Sat 12:05:44 PM 41.4167 -73.8667 143° Southeast 116 133 4,000  Level New York TRACON
Sat 12:06:00 PM 41.2520 -73.8657 143° Southeast  Level Estimated
Sat 12:06:43 PM 41.4000 -73.8500 143° Southeast 121 139 3,500  Level New York TRACON
Sat 12:07:43 PM 41.3667 -73.8167 143° Southeast 116 133 3,000 -250 Descending New York TRACON
Sat 12:08:43 PM 41.3500 -73.8000 143° Southeast 110 127 3,000 50 Level New York TRACON
Sat 12:09:43 PM 41.3167 -73.7667 143° Southeast 111 128 3,100 100 Climbing New York TRACON
Sat 12:10:43 PM 41.3000 -73.7500 143° Southeast 119 137 3,200  Climbing New York TRACON
Sat 12:11:49 PM 41.2667 -73.7167 143° Southeast 126 145 3,100 -238 Descending New York TRACON
Sat 12:12:49 PM 41.2333 -73.7000 159° South 122 140 2,700 -526 Descending New York TRACON
Sat 12:13:43 PM 41.2167 -73.6667 124° Southeast 117 135 2,100 -350 Descending New York TRACON
Sat 12:14:49 PM 41.1833 -73.6500 159° South 111 128 2,000  Descending New York TRACON
Sat 12:15:49 PM 41.1500 -73.6333 159° South 107 123 2,100 50 Climbing New York TRACON
Sat 12:16:49 PM 41.1333 -73.6167 143° Southeast 108 124 2,100 -50 Level New York TRACON
Sat 12:17:49 PM 41.1000 -73.6000 159° South 113 130 2,000  Descending New York TRACON
Sat 12:18:49 PM 41.0833 -73.5833 143° Southeast 107 123 2,100 50 Climbing New York TRACON
Sat 12:19:49 PM 41.0500 -73.5667 159° South 121 139 2,100 50 Level New York TRACON
Sat 12:20:49 PM 41.0167 -73.5500 159° South 113 130 2,200  Climbing New York TRACON
Sat 12:21:49 PM 40.9833 -73.5333 159° South 117 135 2,100 -50 Descending New York TRACON
Sat 12:22:49 PM 40.9500 -73.5333 180° South 118 136 2,100 -50 Level New York TRACON
Sat 12:23:49 PM 40.9500 -73.5667 270° West 110 127 2,000  Descending New York TRACON
Sat 12:24:49 PM 40.9500 -73.6000 270° West 104 120 2,100 50 Climbing New York TRACON
Sat 12:25:49 PM 40.9667 -73.6333 304° West 106 122 2,100  Level New York TRACON
Sat 12:26:49 PM 40.9833 -73.6500 323° Northwest 104 120 2,100 -263 Level New York TRACON
Sat 12:27:43 PM 41.0167 -73.6667 339° North 95 109 1,600 -500 Descending New York TRACON
Sat 12:28:49 PM 41.0333 -73.6833 323° Northwest 98 113 1,100 -455 Descending New York TRACON
Sat 12:30:00 PM 41.0667 -73.7000 252° West  Level FlightAware Approximate

Login

Don't have an account? Register now (free) for customized features, flight alerts, and more!